sensor_id;sensor_type;location;lat;lon;timestamp;P1;durP1;ratioP1;P2;durP2;ratioP2
13067;SDS011;6600;51.362;6.686;2023-04-01T00:01:01;0.40;;;0.37;;
13067;SDS011;6600;51.362;6.686;2023-04-01T00:03:28;0.87;;;0.40;;
13067;SDS011;6600;51.362;6.686;2023-04-01T00:05:55;0.10;;;0.10;;
13067;SDS011;6600;51.362;6.686;2023-04-01T00:08:21;0.97;;;0.20;;
13067;SDS011;6600;51.362;6.686;2023-04-01T00:10:47;0.27;;;0.27;;
13067;SDS011;6600;51.362;6.686;2023-04-01T00:13:13;0.20;;;0.17;;
13067;SDS011;6600;51.362;6.686;2023-04-01T00:15:38;0.43;;;0.33;;
13067;SDS011;6600;51.362;6.686;2023-04-01T00:18:04;0.33;;;0.33;;
13067;SDS011;6600;51.362;6.686;2023-04-01T00:20:30;0.40;;;0.40;;
13067;SDS011;6600;51.362;6.686;2023-04-01T00:22:55;0.27;;;0.23;;
13067;SDS011;6600;51.362;6.686;2023-04-01T00:25:21;0.77;;;0.13;;
13067;SDS011;6600;51.362;6.686;2023-04-01T00:27:47;0.20;;;0.20;;
13067;SDS011;6600;51.362;6.686;2023-04-01T00:30:12;0.40;;;0.33;;
13067;SDS011;6600;51.362;6.686;2023-04-01T00:32:38;0.23;;;0.17;;
13067;SDS011;6600;51.362;6.686;2023-04-01T00:35:03;0.60;;;0.37;;
13067;SDS011;6600;51.362;6.686;2023-04-01T00:37:30;1.07;;;0.27;;
13067;SDS011;6600;51.362;6.686;2023-04-01T00:39:55;0.90;;;0.30;;
13067;SDS011;6600;51.362;6.686;2023-04-01T00:42:21;0.10;;;0.10;;
13067;SDS011;6600;51.362;6.686;2023-04-01T00:44:50;0.63;;;0.40;;
13067;SDS011;6600;51.362;6.686;2023-04-01T00:47:17;0.10;;;0.00;;
13067;SDS011;6600;51.362;6.686;2023-04-01T00:49:44;0.40;;;0.20;;
13067;SDS011;6600;51.362;6.686;2023-04-01T00:52:12;2.53;;;0.73;;
13067;SDS011;6600;51.362;6.686;2023-04-01T00:54:41;0.77;;;0.33;;
13067;SDS011;6600;51.362;6.686;2023-04-01T00:57:18;2.13;;;0.77;;
13067;SDS011;6600;51.362;6.686;2023-04-01T00:59:48;3.50;;;0.50;;
13067;SDS011;6600;51.362;6.686;2023-04-01T01:02:17;0.43;;;0.30;;
13067;SDS011;6600;51.362;6.686;2023-04-01T01:04:43;0.13;;;0.13;;
13067;SDS011;6600;51.362;6.686;2023-04-01T01:12:40;0.60;;;0.10;;
13067;SDS011;6600;51.362;6.686;2023-04-01T01:15:32;1.13;;;0.70;;
13067;SDS011;6600;51.362;6.686;2023-04-01T01:18:07;0.10;;;0.10;;
13067;SDS011;6600;51.362;6.686;2023-04-01T01:31:31;0.20;;;0.20;;
13067;SDS011;6600;51.362;6.686;2023-04-01T01:37:06;0.87;;;0.53;;
13067;SDS011;6600;51.362;6.686;2023-04-01T01:39:36;1.07;;;0.10;;
13067;SDS011;6600;51.362;6.686;2023-04-01T01:42:04;2.27;;;0.70;;
13067;SDS011;6600;51.362;6.686;2023-04-01T01:44:32;0.30;;;0.20;;
13067;SDS011;6600;51.362;6.686;2023-04-01T01:47:00;1.90;;;0.20;;
13067;SDS011;6600;51.362;6.686;2023-04-01T01:49:26;0.23;;;0.20;;
13067;SDS011;6600;51.362;6.686;2023-04-01T01:51:55;0.10;;;0.10;;
13067;SDS011;6600;51.362;6.686;2023-04-01T01:54:21;0.40;;;0.30;;
13067;SDS011;6600;51.362;6.686;2023-04-01T01:56:47;0.17;;;0.13;;
13067;SDS011;6600;51.362;6.686;2023-04-01T01:59:16;0.00;;;0.00;;
13067;SDS011;6600;51.362;6.686;2023-04-01T02:01:46;0.20;;;0.20;;
13067;SDS011;6600;51.362;6.686;2023-04-01T02:04:19;0.63;;;0.40;;
13067;SDS011;6600;51.362;6.686;2023-04-01T02:06:49;0.10;;;0.10;;
13067;SDS011;6600;51.362;6.686;2023-04-01T02:09:20;0.10;;;0.10;;
13067;SDS011;6600;51.362;6.686;2023-04-01T02:11:51;0.27;;;0.27;;
13067;SDS011;6600;51.362;6.686;2023-04-01T02:14:21;1.27;;;0.40;;
13067;SDS011;6600;51.362;6.686;2023-04-01T02:16:54;0.70;;;0.30;;
13067;SDS011;6600;51.362;6.686;2023-04-01T02:19:24;0.60;;;0.40;;
13067;SDS011;6600;51.362;6.686;2023-04-01T02:21:59;0.27;;;0.23;;
13067;SDS011;6600;51.362;6.686;2023-04-01T02:24:28;0.77;;;0.77;;
13067;SDS011;6600;51.362;6.686;2023-04-01T02:26:56;1.40;;;0.40;;
13067;SDS011;6600;51.362;6.686;2023-04-01T02:29:23;0.53;;;0.53;;
13067;SDS011;6600;51.362;6.686;2023-04-01T02:31:52;0.20;;;0.20;;
13067;SDS011;6600;51.362;6.686;2023-04-01T02:34:20;0.53;;;0.40;;
13067;SDS011;6600;51.362;6.686;2023-04-01T02:36:47;0.20;;;0.20;;
13067;SDS011;6600;51.362;6.686;2023-04-01T02:39:14;0.60;;;0.33;;
13067;SDS011;6600;51.362;6.686;2023-04-01T02:41:40;0.30;;;0.30;;
13067;SDS011;6600;51.362;6.686;2023-04-01T02:44:07;0.30;;;0.10;;
13067;SDS011;6600;51.362;6.686;2023-04-01T02:46:34;0.00;;;0.00;;
13067;SDS011;6600;51.362;6.686;2023-04-01T02:48:59;0.20;;;0.20;;
13067;SDS011;6600;51.362;6.686;2023-04-01T02:51:25;0.10;;;0.10;;
13067;SDS011;6600;51.362;6.686;2023-04-01T02:53:51;1.17;;;0.30;;
13067;SDS011;6600;51.362;6.686;2023-04-01T02:56:16;0.70;;;0.20;;
13067;SDS011;6600;51.362;6.686;2023-04-01T02:58:42;0.10;;;0.10;;
13067;SDS011;6600;51.362;6.686;2023-04-01T03:01:07;2.07;;;0.47;;
13067;SDS011;6600;51.362;6.686;2023-04-01T03:03:33;0.30;;;0.27;;
13067;SDS011;6600;51.362;6.686;2023-04-01T03:06:01;0.23;;;0.20;;
13067;SDS011;6600;51.362;6.686;2023-04-01T03:08:30;0.73;;;0.50;;
13067;SDS011;6600;51.362;6.686;2023-04-01T03:10:55;0.20;;;0.20;;
13067;SDS011;6600;51.362;6.686;2023-04-01T03:13:20;0.10;;;0.10;;
13067;SDS011;6600;51.362;6.686;2023-04-01T03:15:46;0.10;;;0.10;;
13067;SDS011;6600;51.362;6.686;2023-04-01T03:18:11;0.27;;;0.27;;
13067;SDS011;6600;51.362;6.686;2023-04-01T03:20:36;2.67;;;0.20;;
13067;SDS011;6600;51.362;6.686;2023-04-01T03:23:02;0.13;;;0.13;;
13067;SDS011;6600;51.362;6.686;2023-04-01T03:25:27;0.30;;;0.30;;
13067;SDS011;6600;51.362;6.686;2023-04-01T03:27:53;0.37;;;0.17;;
13067;SDS011;6600;51.362;6.686;2023-04-01T03:30:19;0.10;;;0.10;;
13067;SDS011;6600;51.362;6.686;2023-04-01T03:32:44;0.10;;;0.10;;
13067;SDS011;6600;51.362;6.686;2023-04-01T03:35:09;0.63;;;0.30;;
13067;SDS011;6600;51.362;6.686;2023-04-01T03:37:35;1.90;;;0.30;;
13067;SDS011;6600;51.362;6.686;2023-04-01T03:40:00;0.40;;;0.30;;
13067;SDS011;6600;51.362;6.686;2023-04-01T03:42:26;0.37;;;0.27;;
13067;SDS011;6600;51.362;6.686;2023-04-01T03:44:51;0.40;;;0.37;;
13067;SDS011;6600;51.362;6.686;2023-04-01T03:47:16;0.50;;;0.50;;
13067;SDS011;6600;51.362;6.686;2023-04-01T03:49:42;0.70;;;0.47;;
13067;SDS011;6600;51.362;6.686;2023-04-01T03:52:10;0.20;;;0.20;;
13067;SDS011;6600;51.362;6.686;2023-04-01T03:54:36;0.37;;;0.37;;
13067;SDS011;6600;51.362;6.686;2023-04-01T03:57:01;0.60;;;0.60;;
13067;SDS011;6600;51.362;6.686;2023-04-01T03:59:27;0.30;;;0.30;;
13067;SDS011;6600;51.362;6.686;2023-04-01T04:01:52;0.30;;;0.30;;
13067;SDS011;6600;51.362;6.686;2023-04-01T04:04:17;1.40;;;0.37;;
13067;SDS011;6600;51.362;6.686;2023-04-01T04:06:43;0.90;;;0.30;;
13067;SDS011;6600;51.362;6.686;2023-04-01T04:09:08;0.33;;;0.33;;
13067;SDS011;6600;51.362;6.686;2023-04-01T04:11:33;0.43;;;0.10;;
13067;SDS011;6600;51.362;6.686;2023-04-01T04:13:59;0.10;;;0.10;;
13067;SDS011;6600;51.362;6.686;2023-04-01T04:16:24;0.60;;;0.60;;
13067;SDS011;6600;51.362;6.686;2023-04-01T04:18:50;0.20;;;0.20;;
13067;SDS011;6600;51.362;6.686;2023-04-01T04:21:16;0.20;;;0.20;;
13067;SDS011;6600;51.362;6.686;2023-04-01T04:23:42;0.47;;;0.43;;
13067;SDS011;6600;51.362;6.686;2023-04-01T04:26:10;0.77;;;0.30;;
13067;SDS011;6600;51.362;6.686;2023-04-01T04:28:37;0.23;;;0.23;;
13067;SDS011;6600;51.362;6.686;2023-04-01T04:31:03;0.30;;;0.30;;
13067;SDS011;6600;51.362;6.686;2023-04-01T04:33:33;0.10;;;0.10;;
13067;SDS011;6600;51.362;6.686;2023-04-01T04:35:59;1.50;;;0.40;;
13067;SDS011;6600;51.362;6.686;2023-04-01T04:38:25;0.30;;;0.30;;
13067;SDS011;6600;51.362;6.686;2023-04-01T04:40:51;0.30;;;0.30;;
13067;SDS011;6600;51.362;6.686;2023-04-01T04:43:17;0.20;;;0.20;;
13067;SDS011;6600;51.362;6.686;2023-04-01T04:45:43;0.13;;;0.13;;
13067;SDS011;6600;51.362;6.686;2023-04-01T04:48:10;0.10;;;0.10;;
13067;SDS011;6600;51.362;6.686;2023-04-01T04:50:43;0.30;;;0.20;;
13067;SDS011;6600;51.362;6.686;2023-04-01T04:53:09;0.40;;;0.23;;
13067;SDS011;6600;51.362;6.686;2023-04-01T04:55:35;0.87;;;0.20;;
13067;SDS011;6600;51.362;6.686;2023-04-01T04:58:01;0.20;;;0.20;;
13067;SDS011;6600;51.362;6.686;2023-04-01T05:00:27;0.20;;;0.20;;
13067;SDS011;6600;51.362;6.686;2023-04-01T05:02:52;1.33;;;0.33;;
13067;SDS011;6600;51.362;6.686;2023-04-01T05:05:17;0.53;;;0.37;;
13067;SDS011;6600;51.362;6.686;2023-04-01T05:07:43;0.27;;;0.27;;
13067;SDS011;6600;51.362;6.686;2023-04-01T05:10:08;0.37;;;0.37;;
13067;SDS011;6600;51.362;6.686;2023-04-01T05:12:34;0.60;;;0.53;;
13067;SDS011;6600;51.362;6.686;2023-04-01T05:15:03;1.53;;;0.60;;
13067;SDS011;6600;51.362;6.686;2023-04-01T05:17:30;0.80;;;0.73;;
13067;SDS011;6600;51.362;6.686;2023-04-01T05:19:55;1.17;;;0.70;;
13067;SDS011;6600;51.362;6.686;2023-04-01T05:22:21;0.60;;;0.60;;
13067;SDS011;6600;51.362;6.686;2023-04-01T05:24:47;0.43;;;0.43;;
13067;SDS011;6600;51.362;6.686;2023-04-01T05:27:12;0.33;;;0.30;;
13067;SDS011;6600;51.362;6.686;2023-04-01T05:29:37;0.70;;;0.40;;
13067;SDS011;6600;51.362;6.686;2023-04-01T05:32:03;0.30;;;0.30;;
13067;SDS011;6600;51.362;6.686;2023-04-01T05:34:28;0.63;;;0.40;;
13067;SDS011;6600;51.362;6.686;2023-04-01T05:36:53;2.80;;;0.70;;
13067;SDS011;6600;51.362;6.686;2023-04-01T05:39:18;0.73;;;0.60;;
13067;SDS011;6600;51.362;6.686;2023-04-01T05:41:44;0.83;;;0.83;;
13067;SDS011;6600;51.362;6.686;2023-04-01T05:44:10;0.80;;;0.57;;
13067;SDS011;6600;51.362;6.686;2023-04-01T05:46:37;0.70;;;0.70;;
13067;SDS011;6600;51.362;6.686;2023-04-01T05:49:02;0.67;;;0.67;;
13067;SDS011;6600;51.362;6.686;2023-04-01T05:51:27;3.10;;;0.93;;
13067;SDS011;6600;51.362;6.686;2023-04-01T05:53:53;1.57;;;0.67;;
13067;SDS011;6600;51.362;6.686;2023-04-01T05:56:18;1.90;;;1.37;;
13067;SDS011;6600;51.362;6.686;2023-04-01T05:58:43;0.63;;;0.63;;
13067;SDS011;6600;51.362;6.686;2023-04-01T06:01:15;0.87;;;0.73;;
13067;SDS011;6600;51.362;6.686;2023-04-01T06:03:40;0.73;;;0.67;;
13067;SDS011;6600;51.362;6.686;2023-04-01T06:06:10;0.70;;;0.70;;
13067;SDS011;6600;51.362;6.686;2023-04-01T06:08:39;1.43;;;1.00;;
13067;SDS011;6600;51.362;6.686;2023-04-01T06:14:10;0.80;;;0.50;;
13067;SDS011;6600;51.362;6.686;2023-04-01T06:19:20;0.60;;;0.60;;
13067;SDS011;6600;51.362;6.686;2023-04-01T06:29:55;0.70;;;0.70;;
13067;SDS011;6600;51.362;6.686;2023-04-01T06:32:41;0.80;;;0.80;;
13067;SDS011;6600;51.362;6.686;2023-04-01T06:41:25;1.30;;;1.20;;
13067;SDS011;6600;51.362;6.686;2023-04-01T06:44:39;0.83;;;0.80;;
13067;SDS011;6600;51.362;6.686;2023-04-01T06:47:01;1.17;;;0.73;;
13067;SDS011;6600;51.362;6.686;2023-04-01T06:55:02;1.10;;;0.63;;
13067;SDS011;6600;51.362;6.686;2023-04-01T06:57:35;1.07;;;0.97;;
13067;SDS011;6600;51.362;6.686;2023-04-01T07:00:13;1.07;;;0.80;;
13067;SDS011;6600;51.362;6.686;2023-04-01T07:05:39;0.73;;;0.73;;
13067;SDS011;6600;51.362;6.686;2023-04-01T07:08:06;1.03;;;0.80;;
13067;SDS011;6600;51.362;6.686;2023-04-01T07:13:02;1.07;;;0.93;;
13067;SDS011;6600;51.362;6.686;2023-04-01T07:15:38;0.70;;;0.70;;
13067;SDS011;6600;51.362;6.686;2023-04-01T07:18:10;0.83;;;0.83;;
13067;SDS011;6600;51.362;6.686;2023-04-01T07:20:41;1.33;;;1.20;;
13067;SDS011;6600;51.362;6.686;2023-04-01T07:23:16;1.10;;;1.00;;
13067;SDS011;6600;51.362;6.686;2023-04-01T07:25:48;1.07;;;1.03;;
13067;SDS011;6600;51.362;6.686;2023-04-01T07:28:18;0.70;;;0.70;;
13067;SDS011;6600;51.362;6.686;2023-04-01T07:33:26;0.97;;;0.70;;
13067;SDS011;6600;51.362;6.686;2023-04-01T07:39:06;0.63;;;0.63;;
13067;SDS011;6600;51.362;6.686;2023-04-01T07:44:34;1.30;;;0.77;;
13067;SDS011;6600;51.362;6.686;2023-04-01T07:47:16;0.73;;;0.50;;
13067;SDS011;6600;51.362;6.686;2023-04-01T07:50:18;0.67;;;0.67;;
13067;SDS011;6600;51.362;6.686;2023-04-01T07:58:51;2.00;;;1.13;;
13067;SDS011;6600;51.362;6.686;2023-04-01T08:06:37;0.90;;;0.77;;
13067;SDS011;6600;51.362;6.686;2023-04-01T08:09:15;1.13;;;1.03;;
13067;SDS011;6600;51.362;6.686;2023-04-01T08:22:51;0.67;;;0.60;;
13067;SDS011;6600;51.362;6.686;2023-04-01T08:25:26;1.03;;;0.70;;
13067;SDS011;6600;51.362;6.686;2023-04-01T08:27:55;0.97;;;0.90;;
13067;SDS011;6600;51.362;6.686;2023-04-01T08:30:26;0.87;;;0.63;;
13067;SDS011;6600;51.362;6.686;2023-04-01T08:38:41;1.13;;;1.00;;
13067;SDS011;6600;51.362;6.686;2023-04-01T08:41:26;1.97;;;1.10;;
13067;SDS011;6600;51.362;6.686;2023-04-01T08:47:13;1.57;;;1.13;;
13067;SDS011;6600;51.362;6.686;2023-04-01T08:58:57;2.17;;;1.50;;
13067;SDS011;6600;51.362;6.686;2023-04-01T09:13:05;3.37;;;2.27;;
13067;SDS011;6600;51.362;6.686;2023-04-01T09:18:42;1.70;;;1.40;;
13067;SDS011;6600;51.362;6.686;2023-04-01T09:24:19;4.13;;;2.07;;
13067;SDS011;6600;51.362;6.686;2023-04-01T09:27:18;1.77;;;1.47;;
13067;SDS011;6600;51.362;6.686;2023-04-01T09:38:28;2.40;;;1.80;;
13067;SDS011;6600;51.362;6.686;2023-04-01T09:41:46;2.47;;;1.93;;
13067;SDS011;6600;51.362;6.686;2023-04-01T09:44:23;3.07;;;1.80;;
13067;SDS011;6600;51.362;6.686;2023-04-01T09:56:30;4.07;;;2.33;;
13067;SDS011;6600;51.362;6.686;2023-04-01T10:12:17;3.80;;;2.10;;
13067;SDS011;6600;51.362;6.686;2023-04-01T10:23:59;3.43;;;2.37;;
13067;SDS011;6600;51.362;6.686;2023-04-01T10:30:04;4.47;;;2.13;;
13067;SDS011;6600;51.362;6.686;2023-04-01T10:55:35;4.23;;;2.40;;
13067;SDS011;6600;51.362;6.686;2023-04-01T11:23:25;3.47;;;2.43;;
13067;SDS011;6600;51.362;6.686;2023-04-01T11:26:11;3.17;;;2.40;;
13067;SDS011;6600;51.362;6.686;2023-04-01T11:31:47;3.10;;;1.90;;
13067;SDS011;6600;51.362;6.686;2023-04-01T11:37:33;2.67;;;1.60;;
13067;SDS011;6600;51.362;6.686;2023-04-01T11:48:13;2.40;;;1.80;;
13067;SDS011;6600;51.362;6.686;2023-04-01T11:53:28;3.17;;;1.67;;
13067;SDS011;6600;51.362;6.686;2023-04-01T12:04:50;4.20;;;1.67;;
13067;SDS011;6600;51.362;6.686;2023-04-01T12:10:15;2.80;;;1.80;;
13067;SDS011;6600;51.362;6.686;2023-04-01T12:13:47;2.70;;;1.90;;
13067;SDS011;6600;51.362;6.686;2023-04-01T12:20:57;5.27;;;2.27;;
13067;SDS011;6600;51.362;6.686;2023-04-01T12:23:56;4.37;;;1.87;;
13067;SDS011;6600;51.362;6.686;2023-04-01T12:40:26;3.40;;;1.80;;
13067;SDS011;6600;51.362;6.686;2023-04-01T12:43:07;2.30;;;2.10;;
13067;SDS011;6600;51.362;6.686;2023-04-01T12:48:27;2.80;;;2.23;;
13067;SDS011;6600;51.362;6.686;2023-04-01T12:51:49;3.17;;;2.10;;
13067;SDS011;6600;51.362;6.686;2023-04-01T13:02:19;3.80;;;2.10;;
13067;SDS011;6600;51.362;6.686;2023-04-01T13:07:51;4.83;;;2.03;;
13067;SDS011;6600;51.362;6.686;2023-04-01T13:13:24;1.53;;;1.37;;
13067;SDS011;6600;51.362;6.686;2023-04-01T13:18:30;3.13;;;1.93;;
13067;SDS011;6600;51.362;6.686;2023-04-01T13:23:32;2.97;;;2.23;;
13067;SDS011;6600;51.362;6.686;2023-04-01T13:26:07;2.20;;;1.60;;
13067;SDS011;6600;51.362;6.686;2023-04-01T13:34:32;1.67;;;1.40;;
13067;SDS011;6600;51.362;6.686;2023-04-01T13:40:31;1.80;;;1.63;;
13067;SDS011;6600;51.362;6.686;2023-04-01T14:48:04;1.90;;;1.70;;
13067;SDS011;6600;51.362;6.686;2023-04-01T14:50:42;2.53;;;1.27;;
13067;SDS011;6600;51.362;6.686;2023-04-01T14:55:58;1.10;;;1.00;;
13067;SDS011;6600;51.362;6.686;2023-04-01T14:58:42;1.30;;;1.20;;
13067;SDS011;6600;51.362;6.686;2023-04-01T15:01:17;2.60;;;1.77;;
13067;SDS011;6600;51.362;6.686;2023-04-01T15:11:59;1.17;;;1.07;;
13067;SDS011;6600;51.362;6.686;2023-04-01T15:14:38;1.50;;;1.40;;
13067;SDS011;6600;51.362;6.686;2023-04-01T15:28:22;2.53;;;1.43;;
13067;SDS011;6600;51.362;6.686;2023-04-01T15:42:12;1.47;;;1.33;;
13067;SDS011;6600;51.362;6.686;2023-04-01T15:59:19;1.67;;;1.53;;
13067;SDS011;6600;51.362;6.686;2023-04-01T16:02:49;1.70;;;1.17;;
13067;SDS011;6600;51.362;6.686;2023-04-01T16:10:44;0.77;;;0.77;;
13067;SDS011;6600;51.362;6.686;2023-04-01T16:16:19;1.20;;;1.00;;
13067;SDS011;6600;51.362;6.686;2023-04-01T16:18:58;1.40;;;1.13;;
13067;SDS011;6600;51.362;6.686;2023-04-01T16:21:38;2.87;;;1.27;;
13067;SDS011;6600;51.362;6.686;2023-04-01T16:27:02;2.77;;;1.70;;
13067;SDS011;6600;51.362;6.686;2023-04-01T16:32:21;1.67;;;1.43;;
13067;SDS011;6600;51.362;6.686;2023-04-01T16:37:46;1.83;;;1.47;;
13067;SDS011;6600;51.362;6.686;2023-04-01T16:43:05;1.87;;;1.77;;
13067;SDS011;6600;51.362;6.686;2023-04-01T16:45:42;1.60;;;1.47;;
13067;SDS011;6600;51.362;6.686;2023-04-01T16:48:20;2.73;;;1.37;;
13067;SDS011;6600;51.362;6.686;2023-04-01T16:50:59;1.37;;;1.07;;
13067;SDS011;6600;51.362;6.686;2023-04-01T16:58:39;3.67;;;1.77;;
13067;SDS011;6600;51.362;6.686;2023-04-01T17:01:27;1.00;;;1.00;;
13067;SDS011;6600;51.362;6.686;2023-04-01T17:04:07;1.47;;;1.17;;
13067;SDS011;6600;51.362;6.686;2023-04-01T17:06:45;1.77;;;1.23;;
13067;SDS011;6600;51.362;6.686;2023-04-01T17:09:38;2.33;;;1.60;;
13067;SDS011;6600;51.362;6.686;2023-04-01T17:12:20;2.03;;;1.67;;
13067;SDS011;6600;51.362;6.686;2023-04-01T17:15:01;1.87;;;1.40;;
13067;SDS011;6600;51.362;6.686;2023-04-01T17:20:43;2.83;;;1.73;;
13067;SDS011;6600;51.362;6.686;2023-04-01T17:32:15;3.13;;;1.40;;
13067;SDS011;6600;51.362;6.686;2023-04-01T17:35:57;2.07;;;1.70;;
13067;SDS011;6600;51.362;6.686;2023-04-01T17:45:46;1.80;;;1.47;;
13067;SDS011;6600;51.362;6.686;2023-04-01T17:48:20;1.63;;;1.50;;
13067;SDS011;6600;51.362;6.686;2023-04-01T17:53:47;2.87;;;1.70;;
13067;SDS011;6600;51.362;6.686;2023-04-01T18:01:40;2.63;;;1.70;;
13067;SDS011;6600;51.362;6.686;2023-04-01T18:04:10;2.13;;;1.93;;
13067;SDS011;6600;51.362;6.686;2023-04-01T18:15:11;2.40;;;2.20;;
13067;SDS011;6600;51.362;6.686;2023-04-01T18:20:51;2.10;;;2.00;;
13067;SDS011;6600;51.362;6.686;2023-04-01T18:26:21;2.47;;;2.07;;
13067;SDS011;6600;51.362;6.686;2023-04-01T18:29:04;3.70;;;2.33;;
13067;SDS011;6600;51.362;6.686;2023-04-01T18:31:51;3.87;;;1.80;;
13067;SDS011;6600;51.362;6.686;2023-04-01T18:37:17;2.43;;;2.20;;
13067;SDS011;6600;51.362;6.686;2023-04-01T18:39:48;4.83;;;2.27;;
13067;SDS011;6600;51.362;6.686;2023-04-01T18:45:08;3.57;;;2.60;;
13067;SDS011;6600;51.362;6.686;2023-04-01T18:47:44;4.47;;;2.60;;
13067;SDS011;6600;51.362;6.686;2023-04-01T18:53:22;5.47;;;2.97;;
13067;SDS011;6600;51.362;6.686;2023-04-01T18:55:51;4.83;;;2.47;;
13067;SDS011;6600;51.362;6.686;2023-04-01T18:58:22;4.37;;;2.73;;
13067;SDS011;6600;51.362;6.686;2023-04-01T19:06:33;2.37;;;1.80;;
13067;SDS011;6600;51.362;6.686;2023-04-01T19:09:15;2.67;;;2.13;;
13067;SDS011;6600;51.362;6.686;2023-04-01T19:17:20;3.80;;;2.03;;
13067;SDS011;6600;51.362;6.686;2023-04-01T19:25:35;1.67;;;1.57;;
13067;SDS011;6600;51.362;6.686;2023-04-01T19:28:26;3.27;;;1.90;;
13067;SDS011;6600;51.362;6.686;2023-04-01T19:36:59;2.00;;;1.77;;
13067;SDS011;6600;51.362;6.686;2023-04-01T19:42:37;2.73;;;2.13;;
13067;SDS011;6600;51.362;6.686;2023-04-01T19:48:12;3.73;;;2.17;;
13067;SDS011;6600;51.362;6.686;2023-04-01T19:51:03;3.13;;;2.00;;
13067;SDS011;6600;51.362;6.686;2023-04-01T19:53:43;1.43;;;1.33;;
13067;SDS011;6600;51.362;6.686;2023-04-01T19:56:14;1.97;;;1.70;;
13067;SDS011;6600;51.362;6.686;2023-04-01T20:01:14;1.33;;;1.23;;
13067;SDS011;6600;51.362;6.686;2023-04-01T20:14:46;2.03;;;1.50;;
13067;SDS011;6600;51.362;6.686;2023-04-01T20:17:18;1.37;;;1.20;;
13067;SDS011;6600;51.362;6.686;2023-04-01T20:20:20;1.30;;;1.20;;
13067;SDS011;6600;51.362;6.686;2023-04-01T20:22:59;1.60;;;1.07;;
13067;SDS011;6600;51.362;6.686;2023-04-01T20:25:30;1.40;;;1.27;;
13067;SDS011;6600;51.362;6.686;2023-04-01T20:30:53;1.33;;;1.23;;
13067;SDS011;6600;51.362;6.686;2023-04-01T20:42:27;3.83;;;1.63;;
13067;SDS011;6600;51.362;6.686;2023-04-01T20:48:02;2.20;;;1.93;;
13067;SDS011;6600;51.362;6.686;2023-04-01T21:05:02;1.23;;;1.13;;
13067;SDS011;6600;51.362;6.686;2023-04-01T21:07:34;2.33;;;1.43;;
13067;SDS011;6600;51.362;6.686;2023-04-01T21:26:41;4.33;;;1.50;;
13067;SDS011;6600;51.362;6.686;2023-04-01T21:33:07;1.30;;;1.20;;
13067;SDS011;6600;51.362;6.686;2023-04-01T21:35:23;2.13;;;1.47;;
13067;SDS011;6600;51.362;6.686;2023-04-01T21:49:09;2.20;;;0.93;;
13067;SDS011;6600;51.362;6.686;2023-04-01T22:00:17;0.83;;;0.60;;
13067;SDS011;6600;51.362;6.686;2023-04-01T22:02:54;1.20;;;1.20;;
13067;SDS011;6600;51.362;6.686;2023-04-01T22:13:26;1.03;;;0.93;;
13067;SDS011;6600;51.362;6.686;2023-04-01T22:29:57;1.47;;;1.13;;
13067;SDS011;6600;51.362;6.686;2023-04-01T22:32:32;1.83;;;1.10;;
13067;SDS011;6600;51.362;6.686;2023-04-01T22:43:16;1.23;;;1.13;;
13067;SDS011;6600;51.362;6.686;2023-04-01T22:46:14;2.20;;;1.30;;
13067;SDS011;6600;51.362;6.686;2023-04-01T22:48:54;2.10;;;1.70;;
13067;SDS011;6600;51.362;6.686;2023-04-01T22:51:38;1.93;;;1.17;;
13067;SDS011;6600;51.362;6.686;2023-04-01T22:56:56;1.10;;;0.97;;
13067;SDS011;6600;51.362;6.686;2023-04-01T22:59:37;1.43;;;1.30;;
13067;SDS011;6600;51.362;6.686;2023-04-01T23:04:47;1.87;;;1.50;;
13067;SDS011;6600;51.362;6.686;2023-04-01T23:10:27;2.47;;;1.60;;
13067;SDS011;6600;51.362;6.686;2023-04-01T23:13:15;1.17;;;1.03;;
13067;SDS011;6600;51.362;6.686;2023-04-01T23:15:45;1.80;;;1.37;;
13067;SDS011;6600;51.362;6.686;2023-04-01T23:29:23;1.03;;;0.90;;
13067;SDS011;6600;51.362;6.686;2023-04-01T23:32:01;2.17;;;1.40;;
13067;SDS011;6600;51.362;6.686;2023-04-01T23:34:30;1.50;;;1.20;;
13067;SDS011;6600;51.362;6.686;2023-04-01T23:37:10;2.47;;;1.47;;
13067;SDS011;6600;51.362;6.686;2023-04-01T23:39:39;2.60;;;1.60;;
13067;SDS011;6600;51.362;6.686;2023-04-01T23:44:45;3.60;;;1.90;;
13067;SDS011;6600;51.362;6.686;2023-04-01T23:47:14;1.60;;;1.10;;
13067;SDS011;6600;51.362;6.686;2023-04-01T23:50:02;2.67;;;1.50;;
13067;SDS011;6600;51.362;6.686;2023-04-01T23:52:36;2.63;;;1.10;;
13067;SDS011;6600;51.362;6.686;2023-04-01T23:57:40;2.37;;;1.60;;
